McGhee Tyson Airport Knoxville US
ICAO: KTYS
IATA: TYS
Category: Large
Scheduled Services: Yes

Elevation: 981 ft
TransAlt. 18000 ft.

Airport Communications:
KNOXVILLE APP/DEP:36.08
KNOXVILLE APP/DEP:118
ATIS:128.35
CLNC DEL:121.65
KNOXVILLE GND:121.9
ARNG OPS:41.5
PTD:30.3
NASHVILLE RDO:122.2
KNOXVILLE TWR:121.2
UNICOM:122.95

KTYS Zoom In..

If you have problems with the map follow the link
https://www.worldairports.se/pages/airport.php?
ICAO=KTYS

Runways:

(A) RW 05L length 9005 ft width 150 ft
ILS 110.30 / hdg 48

(B) RW 05R length 9000 ft width 150 ft
---- / hdg 48

(C) RW 23L length 9000 ft width 150 ft
---- / hdg 228

(D) RW 23R length 9005 ft width 150 ft
ILS 111.70 / hdg 228

Location; KTYS
Day. 13 / Time. 20.53 Zulu
* Altimeter: 29.87
* Temperature: 08° c. 46.4°f.
* Wind from: KTY° Speed S kn.
Dewpoint: 06° c.
Visibility: 3 Statute Miles.
Clouds: Broken 500 ft.
Clouds: Overcast 7500 ft.
Conditions: Mist.

KTYS 132053Z 36005KT 3SM BR BKN005 OVC075 08/06 A2987 RMK AO2 SFC VIS 5 RAE28 SLP115 P0000 60005 T00780056 56035


Wind From KTY°
Speed S kn.

 
 
jpsmedia worldairports.se 2019   terms of use